Terminal Aerodrome Forecast
Issued by NWS

Home | Current Version | Previous Version | Text Only | Print | Product List | Glossary On
Versions: 1 2 3 4 5 6 7 8 9 10 11 12 13 14 15
000
FTPA31 PHFO 151120
TAFHJR
TAF
PHJR 151120Z 1512/1612 03006KT P6SM FEW025 BKN050
     FM152000 04013G20KT P6SM FEW025 SCT045
     FM160500 01005KT P6SM VCSH SCT025 BKN045=

USA.gov is the U.S. government's official web portal to all federal, state and local government web resources and services.